sensor_id;sensor_type;location;lat;lon;timestamp;P1;durP1;ratioP1;P2;durP2;ratioP2
815;SDS011;25928;51.062;13.752;2023-05-10T00:00:52;3.00;;;2.57;;
815;SDS011;25928;51.062;13.752;2023-05-10T00:03:18;3.47;;;2.50;;
815;SDS011;25928;51.062;13.752;2023-05-10T00:05:44;2.60;;;1.93;;
815;SDS011;25928;51.062;13.752;2023-05-10T00:08:09;2.67;;;2.30;;
815;SDS011;25928;51.062;13.752;2023-05-10T00:10:35;2.77;;;2.33;;
815;SDS011;25928;51.062;13.752;2023-05-10T00:13:02;4.73;;;2.40;;
815;SDS011;25928;51.062;13.752;2023-05-10T00:15:28;4.57;;;2.63;;
815;SDS011;25928;51.062;13.752;2023-05-10T00:17:55;2.20;;;2.00;;
815;SDS011;25928;51.062;13.752;2023-05-10T00:20:21;3.37;;;2.40;;
815;SDS011;25928;51.062;13.752;2023-05-10T00:22:47;5.30;;;2.80;;
815;SDS011;25928;51.062;13.752;2023-05-10T00:25:12;3.53;;;2.60;;
815;SDS011;25928;51.062;13.752;2023-05-10T00:27:38;2.37;;;2.17;;
815;SDS011;25928;51.062;13.752;2023-05-10T00:30:04;4.30;;;2.30;;
815;SDS011;25928;51.062;13.752;2023-05-10T00:32:31;3.07;;;2.80;;
815;SDS011;25928;51.062;13.752;2023-05-10T00:34:57;4.30;;;2.30;;
815;SDS011;25928;51.062;13.752;2023-05-10T00:37:23;2.60;;;2.40;;
815;SDS011;25928;51.062;13.752;2023-05-10T00:39:48;3.10;;;2.60;;
815;SDS011;25928;51.062;13.752;2023-05-10T00:42:14;3.10;;;2.80;;
815;SDS011;25928;51.062;13.752;2023-05-10T00:44:40;3.73;;;2.83;;
815;SDS011;25928;51.062;13.752;2023-05-10T00:47:05;2.80;;;2.60;;
815;SDS011;25928;51.062;13.752;2023-05-10T00:49:32;2.80;;;2.60;;
815;SDS011;25928;51.062;13.752;2023-05-10T00:51:57;2.77;;;2.57;;
815;SDS011;25928;51.062;13.752;2023-05-10T00:54:23;3.60;;;2.60;;
815;SDS011;25928;51.062;13.752;2023-05-10T00:56:49;2.97;;;2.60;;
815;SDS011;25928;51.062;13.752;2023-05-10T00:59:16;2.87;;;2.57;;
815;SDS011;25928;51.062;13.752;2023-05-10T01:01:43;2.13;;;1.93;;
815;SDS011;25928;51.062;13.752;2023-05-10T01:04:10;5.63;;;2.40;;
815;SDS011;25928;51.062;13.752;2023-05-10T01:06:38;2.70;;;2.50;;
815;SDS011;25928;51.062;13.752;2023-05-10T01:09:06;2.83;;;2.60;;
815;SDS011;25928;51.062;13.752;2023-05-10T01:11:36;2.50;;;2.30;;
815;SDS011;25928;51.062;13.752;2023-05-10T01:14:03;4.67;;;1.87;;
815;SDS011;25928;51.062;13.752;2023-05-10T01:16:29;3.10;;;2.10;;
815;SDS011;25928;51.062;13.752;2023-05-10T01:19:00;2.63;;;2.37;;
815;SDS011;25928;51.062;13.752;2023-05-10T01:47:06;3.83;;;2.47;;
815;SDS011;25928;51.062;13.752;2023-05-10T01:49:36;2.83;;;2.53;;
815;SDS011;25928;51.062;13.752;2023-05-10T01:52:10;9.80;;;2.57;;
815;SDS011;25928;51.062;13.752;2023-05-10T01:54:41;2.40;;;2.20;;
815;SDS011;25928;51.062;13.752;2023-05-10T01:57:13;3.47;;;1.97;;
815;SDS011;25928;51.062;13.752;2023-05-10T01:59:39;3.50;;;2.83;;
815;SDS011;25928;51.062;13.752;2023-05-10T02:02:08;5.57;;;2.17;;
815;SDS011;25928;51.062;13.752;2023-05-10T02:04:37;3.53;;;2.50;;
815;SDS011;25928;51.062;13.752;2023-05-10T02:07:04;2.67;;;2.47;;
815;SDS011;25928;51.062;13.752;2023-05-10T02:09:32;3.00;;;2.10;;
815;SDS011;25928;51.062;13.752;2023-05-10T02:11:59;2.60;;;2.40;;
815;SDS011;25928;51.062;13.752;2023-05-10T02:14:27;2.20;;;2.00;;
815;SDS011;25928;51.062;13.752;2023-05-10T02:16:57;4.73;;;3.00;;
815;SDS011;25928;51.062;13.752;2023-05-10T02:19:24;2.80;;;1.83;;
815;SDS011;25928;51.062;13.752;2023-05-10T02:21:52;2.73;;;2.53;;
815;SDS011;25928;51.062;13.752;2023-05-10T02:24:21;2.90;;;2.60;;
815;SDS011;25928;51.062;13.752;2023-05-10T02:26:49;4.10;;;2.03;;
815;SDS011;25928;51.062;13.752;2023-05-10T02:29:16;4.33;;;2.33;;
815;SDS011;25928;51.062;13.752;2023-05-10T02:31:43;2.60;;;2.40;;
815;SDS011;25928;51.062;13.752;2023-05-10T02:34:10;3.37;;;2.33;;
815;SDS011;25928;51.062;13.752;2023-05-10T02:36:37;3.10;;;2.20;;
815;SDS011;25928;51.062;13.752;2023-05-10T02:39:04;2.50;;;2.07;;
815;SDS011;25928;51.062;13.752;2023-05-10T02:41:34;2.60;;;2.40;;
815;SDS011;25928;51.062;13.752;2023-05-10T02:44:01;4.83;;;2.50;;
815;SDS011;25928;51.062;13.752;2023-05-10T02:46:27;3.53;;;2.10;;
815;SDS011;25928;51.062;13.752;2023-05-10T02:48:53;4.93;;;2.43;;
815;SDS011;25928;51.062;13.752;2023-05-10T02:51:19;2.90;;;2.43;;
815;SDS011;25928;51.062;13.752;2023-05-10T02:53:49;2.43;;;2.23;;
815;SDS011;25928;51.062;13.752;2023-05-10T02:59:16;4.77;;;2.90;;
815;SDS011;25928;51.062;13.752;2023-05-10T03:01:41;2.37;;;2.17;;
815;SDS011;25928;51.062;13.752;2023-05-10T03:04:07;2.70;;;2.13;;
815;SDS011;25928;51.062;13.752;2023-05-10T03:06:33;2.57;;;2.37;;
815;SDS011;25928;51.062;13.752;2023-05-10T03:08:58;4.73;;;2.53;;
815;SDS011;25928;51.062;13.752;2023-05-10T03:14:10;3.30;;;2.67;;
815;SDS011;25928;51.062;13.752;2023-05-10T03:17:00;2.57;;;2.37;;
815;SDS011;25928;51.062;13.752;2023-05-10T03:19:32;2.50;;;2.30;;
815;SDS011;25928;51.062;13.752;2023-05-10T03:22:08;2.13;;;1.90;;
815;SDS011;25928;51.062;13.752;2023-05-10T03:24:38;2.73;;;2.17;;
815;SDS011;25928;51.062;13.752;2023-05-10T03:27:06;2.40;;;2.10;;
815;SDS011;25928;51.062;13.752;2023-05-10T03:29:33;2.10;;;1.90;;
815;SDS011;25928;51.062;13.752;2023-05-10T03:31:59;3.63;;;1.83;;
815;SDS011;25928;51.062;13.752;2023-05-10T03:34:25;2.13;;;1.90;;
815;SDS011;25928;51.062;13.752;2023-05-10T03:36:51;2.83;;;2.30;;
815;SDS011;25928;51.062;13.752;2023-05-10T03:39:17;3.57;;;2.47;;
815;SDS011;25928;51.062;13.752;2023-05-10T03:41:43;2.97;;;2.67;;
815;SDS011;25928;51.062;13.752;2023-05-10T03:44:08;4.37;;;2.40;;
815;SDS011;25928;51.062;13.752;2023-05-10T03:46:34;2.63;;;2.03;;
815;SDS011;25928;51.062;13.752;2023-05-10T03:48:59;3.30;;;2.60;;
815;SDS011;25928;51.062;13.752;2023-05-10T03:51:25;2.90;;;2.00;;
815;SDS011;25928;51.062;13.752;2023-05-10T03:53:53;3.47;;;2.43;;
815;SDS011;25928;51.062;13.752;2023-05-10T03:56:21;2.93;;;2.40;;
815;SDS011;25928;51.062;13.752;2023-05-10T03:58:47;2.57;;;2.33;;
815;SDS011;25928;51.062;13.752;2023-05-10T04:01:13;3.00;;;1.80;;
815;SDS011;25928;51.062;13.752;2023-05-10T04:03:38;2.33;;;2.13;;
815;SDS011;25928;51.062;13.752;2023-05-10T04:06:04;2.77;;;2.03;;
815;SDS011;25928;51.062;13.752;2023-05-10T04:08:30;4.63;;;2.30;;
815;SDS011;25928;51.062;13.752;2023-05-10T04:11:05;3.30;;;2.53;;
815;SDS011;25928;51.062;13.752;2023-05-10T04:13:32;3.13;;;2.10;;
815;SDS011;25928;51.062;13.752;2023-05-10T04:15:58;2.57;;;2.37;;
815;SDS011;25928;51.062;13.752;2023-05-10T04:18:23;2.83;;;2.10;;
815;SDS011;25928;51.062;13.752;2023-05-10T04:20:49;2.33;;;2.13;;
815;SDS011;25928;51.062;13.752;2023-05-10T04:23:14;3.80;;;2.40;;
815;SDS011;25928;51.062;13.752;2023-05-10T04:25:41;3.67;;;2.30;;
815;SDS011;25928;51.062;13.752;2023-05-10T04:28:07;3.60;;;2.30;;
815;SDS011;25928;51.062;13.752;2023-05-10T04:30:33;2.33;;;2.13;;
815;SDS011;25928;51.062;13.752;2023-05-10T04:32:59;5.20;;;2.40;;
815;SDS011;25928;51.062;13.752;2023-05-10T04:35:26;4.10;;;2.13;;
815;SDS011;25928;51.062;13.752;2023-05-10T04:37:53;2.17;;;1.80;;
815;SDS011;25928;51.062;13.752;2023-05-10T04:40:18;2.90;;;2.20;;
815;SDS011;25928;51.062;13.752;2023-05-10T04:42:45;2.40;;;2.10;;
815;SDS011;25928;51.062;13.752;2023-05-10T04:45:10;3.23;;;2.40;;
815;SDS011;25928;51.062;13.752;2023-05-10T04:47:36;2.33;;;2.13;;
815;SDS011;25928;51.062;13.752;2023-05-10T04:50:02;3.67;;;2.20;;
815;SDS011;25928;51.062;13.752;2023-05-10T04:52:29;2.73;;;2.13;;
815;SDS011;25928;51.062;13.752;2023-05-10T04:54:54;4.10;;;2.23;;
815;SDS011;25928;51.062;13.752;2023-05-10T04:57:20;3.17;;;2.87;;
815;SDS011;25928;51.062;13.752;2023-05-10T04:59:46;2.77;;;2.07;;
815;SDS011;25928;51.062;13.752;2023-05-10T05:02:11;2.33;;;2.13;;
815;SDS011;25928;51.062;13.752;2023-05-10T05:04:37;4.67;;;2.23;;
815;SDS011;25928;51.062;13.752;2023-05-10T05:07:03;2.73;;;2.23;;
815;SDS011;25928;51.062;13.752;2023-05-10T05:09:28;3.10;;;1.90;;
815;SDS011;25928;51.062;13.752;2023-05-10T05:11:54;3.00;;;2.20;;
815;SDS011;25928;51.062;13.752;2023-05-10T05:14:19;4.03;;;2.77;;
815;SDS011;25928;51.062;13.752;2023-05-10T05:16:50;4.50;;;2.67;;
815;SDS011;25928;51.062;13.752;2023-05-10T05:19:18;3.40;;;3.10;;
815;SDS011;25928;51.062;13.752;2023-05-10T05:21:44;4.10;;;2.40;;
815;SDS011;25928;51.062;13.752;2023-05-10T05:24:09;5.20;;;2.13;;
815;SDS011;25928;51.062;13.752;2023-05-10T05:26:37;2.90;;;2.50;;
815;SDS011;25928;51.062;13.752;2023-05-10T05:29:03;3.53;;;2.40;;
815;SDS011;25928;51.062;13.752;2023-05-10T05:31:28;3.10;;;2.20;;
815;SDS011;25928;51.062;13.752;2023-05-10T05:33:54;3.70;;;2.20;;
815;SDS011;25928;51.062;13.752;2023-05-10T05:36:20;3.93;;;2.40;;
815;SDS011;25928;51.062;13.752;2023-05-10T05:38:46;2.57;;;2.10;;
815;SDS011;25928;51.062;13.752;2023-05-10T05:41:12;4.80;;;2.40;;
815;SDS011;25928;51.062;13.752;2023-05-10T05:43:37;3.30;;;2.83;;
815;SDS011;25928;51.062;13.752;2023-05-10T05:46:03;5.40;;;2.40;;
815;SDS011;25928;51.062;13.752;2023-05-10T05:48:29;3.30;;;2.30;;
815;SDS011;25928;51.062;13.752;2023-05-10T05:50:55;3.87;;;3.03;;
815;SDS011;25928;51.062;13.752;2023-05-10T05:53:22;3.43;;;2.50;;
815;SDS011;25928;51.062;13.752;2023-05-10T05:55:54;4.17;;;2.20;;
815;SDS011;25928;51.062;13.752;2023-05-10T05:58:22;3.93;;;2.50;;
815;SDS011;25928;51.062;13.752;2023-05-10T06:00:48;3.93;;;2.50;;
815;SDS011;25928;51.062;13.752;2023-05-10T06:03:13;3.30;;;3.00;;
815;SDS011;25928;51.062;13.752;2023-05-10T06:05:39;3.57;;;2.87;;
815;SDS011;25928;51.062;13.752;2023-05-10T06:08:05;7.37;;;2.63;;
815;SDS011;25928;51.062;13.752;2023-05-10T06:10:30;4.70;;;2.97;;
815;SDS011;25928;51.062;13.752;2023-05-10T06:12:56;6.63;;;3.70;;
815;SDS011;25928;51.062;13.752;2023-05-10T06:15:22;3.17;;;2.60;;
815;SDS011;25928;51.062;13.752;2023-05-10T06:17:47;4.53;;;2.37;;
815;SDS011;25928;51.062;13.752;2023-05-10T06:20:14;3.10;;;2.30;;
815;SDS011;25928;51.062;13.752;2023-05-10T06:22:40;5.77;;;2.30;;
815;SDS011;25928;51.062;13.752;2023-05-10T06:25:07;5.70;;;3.03;;
815;SDS011;25928;51.062;13.752;2023-05-10T06:27:33;3.80;;;2.60;;
815;SDS011;25928;51.062;13.752;2023-05-10T06:29:59;6.50;;;2.73;;
815;SDS011;25928;51.062;13.752;2023-05-10T06:32:25;3.13;;;2.83;;
815;SDS011;25928;51.062;13.752;2023-05-10T06:34:50;4.17;;;3.53;;
815;SDS011;25928;51.062;13.752;2023-05-10T06:37:16;2.83;;;2.20;;
815;SDS011;25928;51.062;13.752;2023-05-10T06:39:42;8.20;;;2.60;;
815;SDS011;25928;51.062;13.752;2023-05-10T06:42:07;2.50;;;2.30;;
815;SDS011;25928;51.062;13.752;2023-05-10T06:44:33;4.00;;;2.87;;
815;SDS011;25928;51.062;13.752;2023-05-10T06:46:59;4.40;;;2.43;;
815;SDS011;25928;51.062;13.752;2023-05-10T06:49:24;4.90;;;2.87;;
815;SDS011;25928;51.062;13.752;2023-05-10T06:51:50;7.53;;;2.93;;
815;SDS011;25928;51.062;13.752;2023-05-10T06:54:15;2.43;;;2.23;;
815;SDS011;25928;51.062;13.752;2023-05-10T06:56:41;4.20;;;2.43;;
815;SDS011;25928;51.062;13.752;2023-05-10T06:59:07;4.03;;;2.50;;
815;SDS011;25928;51.062;13.752;2023-05-10T07:01:32;6.13;;;3.90;;
815;SDS011;25928;51.062;13.752;2023-05-10T07:03:58;3.70;;;2.37;;
815;SDS011;25928;51.062;13.752;2023-05-10T07:06:23;6.20;;;2.47;;
815;SDS011;25928;51.062;13.752;2023-05-10T07:08:49;4.67;;;2.30;;
815;SDS011;25928;51.062;13.752;2023-05-10T07:11:15;5.97;;;2.60;;
815;SDS011;25928;51.062;13.752;2023-05-10T07:13:41;7.60;;;3.10;;
815;SDS011;25928;51.062;13.752;2023-05-10T07:16:09;3.17;;;2.70;;
815;SDS011;25928;51.062;13.752;2023-05-10T07:18:35;4.73;;;2.87;;
815;SDS011;25928;51.062;13.752;2023-05-10T07:21:01;4.57;;;2.90;;
815;SDS011;25928;51.062;13.752;2023-05-10T07:23:26;2.80;;;2.60;;
815;SDS011;25928;51.062;13.752;2023-05-10T07:25:52;5.33;;;3.20;;
815;SDS011;25928;51.062;13.752;2023-05-10T07:28:18;4.17;;;3.27;;
815;SDS011;25928;51.062;13.752;2023-05-10T07:30:44;2.90;;;2.70;;
815;SDS011;25928;51.062;13.752;2023-05-10T07:33:12;4.40;;;2.80;;
815;SDS011;25928;51.062;13.752;2023-05-10T07:35:38;3.07;;;2.57;;
815;SDS011;25928;51.062;13.752;2023-05-10T07:38:04;3.40;;;3.00;;
815;SDS011;25928;51.062;13.752;2023-05-10T07:40:29;2.87;;;2.50;;
815;SDS011;25928;51.062;13.752;2023-05-10T07:42:55;4.17;;;3.37;;
815;SDS011;25928;51.062;13.752;2023-05-10T07:45:21;6.77;;;3.37;;
815;SDS011;25928;51.062;13.752;2023-05-10T07:47:48;2.87;;;2.67;;
815;SDS011;25928;51.062;13.752;2023-05-10T07:50:14;5.20;;;2.70;;
815;SDS011;25928;51.062;13.752;2023-05-10T07:52:39;3.47;;;3.07;;
815;SDS011;25928;51.062;13.752;2023-05-10T07:55:05;3.40;;;2.60;;
815;SDS011;25928;51.062;13.752;2023-05-10T07:57:32;3.33;;;2.80;;
815;SDS011;25928;51.062;13.752;2023-05-10T07:59:58;5.70;;;3.67;;
815;SDS011;25928;51.062;13.752;2023-05-10T08:02:24;6.40;;;3.07;;
815;SDS011;25928;51.062;13.752;2023-05-10T08:04:50;3.10;;;2.77;;
815;SDS011;25928;51.062;13.752;2023-05-10T08:07:16;3.57;;;2.90;;
815;SDS011;25928;51.062;13.752;2023-05-10T08:09:42;3.70;;;3.40;;
815;SDS011;25928;51.062;13.752;2023-05-10T08:12:08;5.43;;;3.50;;
815;SDS011;25928;51.062;13.752;2023-05-10T08:14:33;4.00;;;2.90;;
815;SDS011;25928;51.062;13.752;2023-05-10T08:17:01;4.70;;;3.10;;
815;SDS011;25928;51.062;13.752;2023-05-10T08:19:28;3.40;;;3.20;;
815;SDS011;25928;51.062;13.752;2023-05-10T08:21:53;9.57;;;3.80;;
815;SDS011;25928;51.062;13.752;2023-05-10T08:24:20;5.63;;;3.97;;
815;SDS011;25928;51.062;13.752;2023-05-10T08:26:46;7.87;;;3.90;;
815;SDS011;25928;51.062;13.752;2023-05-10T08:29:12;4.53;;;3.50;;
815;SDS011;25928;51.062;13.752;2023-05-10T08:31:38;3.60;;;3.30;;
815;SDS011;25928;51.062;13.752;2023-05-10T08:34:04;3.73;;;3.33;;
815;SDS011;25928;51.062;13.752;2023-05-10T08:36:30;3.50;;;3.03;;
815;SDS011;25928;51.062;13.752;2023-05-10T08:38:57;3.40;;;3.10;;
815;SDS011;25928;51.062;13.752;2023-05-10T08:41:23;3.30;;;3.00;;
815;SDS011;25928;51.062;13.752;2023-05-10T08:43:51;4.10;;;3.70;;
815;SDS011;25928;51.062;13.752;2023-05-10T08:46:18;3.43;;;2.93;;
815;SDS011;25928;51.062;13.752;2023-05-10T08:48:45;5.97;;;3.53;;
815;SDS011;25928;51.062;13.752;2023-05-10T08:51:18;4.10;;;3.70;;
815;SDS011;25928;51.062;13.752;2023-05-10T08:53:46;5.20;;;3.03;;
815;SDS011;25928;51.062;13.752;2023-05-10T08:56:12;5.10;;;3.63;;
815;SDS011;25928;51.062;13.752;2023-05-10T08:58:40;5.40;;;3.90;;
815;SDS011;25928;51.062;13.752;2023-05-10T09:01:06;4.60;;;3.27;;
815;SDS011;25928;51.062;13.752;2023-05-10T09:03:33;4.10;;;3.60;;
815;SDS011;25928;51.062;13.752;2023-05-10T09:06:00;3.70;;;3.40;;
815;SDS011;25928;51.062;13.752;2023-05-10T09:08:25;3.80;;;3.47;;
815;SDS011;25928;51.062;13.752;2023-05-10T09:10:52;5.93;;;4.10;;
815;SDS011;25928;51.062;13.752;2023-05-10T09:13:18;3.67;;;3.37;;
815;SDS011;25928;51.062;13.752;2023-05-10T09:15:45;5.83;;;3.87;;
815;SDS011;25928;51.062;13.752;2023-05-10T09:18:12;5.20;;;3.83;;
815;SDS011;25928;51.062;13.752;2023-05-10T09:20:37;6.43;;;3.83;;
815;SDS011;25928;51.062;13.752;2023-05-10T09:23:03;3.73;;;3.43;;
815;SDS011;25928;51.062;13.752;2023-05-10T09:25:29;3.20;;;2.90;;
815;SDS011;25928;51.062;13.752;2023-05-10T09:27:54;4.00;;;3.70;;
815;SDS011;25928;51.062;13.752;2023-05-10T09:30:24;5.23;;;3.60;;
815;SDS011;25928;51.062;13.752;2023-05-10T09:32:55;4.70;;;3.53;;
815;SDS011;25928;51.062;13.752;2023-05-10T09:35:22;5.43;;;3.50;;
815;SDS011;25928;51.062;13.752;2023-05-10T09:37:50;4.10;;;3.20;;
815;SDS011;25928;51.062;13.752;2023-05-10T09:40:19;8.47;;;4.20;;
815;SDS011;25928;51.062;13.752;2023-05-10T09:43:29;5.10;;;3.40;;
815;SDS011;25928;51.062;13.752;2023-05-10T09:45:36;6.50;;;3.97;;
815;SDS011;25928;51.062;13.752;2023-05-10T09:48:02;4.30;;;3.27;;
815;SDS011;25928;51.062;13.752;2023-05-10T09:50:28;3.80;;;3.50;;
815;SDS011;25928;51.062;13.752;2023-05-10T09:52:56;3.90;;;3.40;;
815;SDS011;25928;51.062;13.752;2023-05-10T09:58:05;10.00;;;4.50;;
815;SDS011;25928;51.062;13.752;2023-05-10T10:00:38;3.97;;;3.20;;
815;SDS011;25928;51.062;13.752;2023-05-10T10:03:05;5.70;;;3.80;;
815;SDS011;25928;51.062;13.752;2023-05-10T10:05:37;4.33;;;3.93;;
815;SDS011;25928;51.062;13.752;2023-05-10T10:08:06;4.40;;;4.00;;
815;SDS011;25928;51.062;13.752;2023-05-10T10:10:32;6.00;;;4.20;;
815;SDS011;25928;51.062;13.752;2023-05-10T10:12:59;5.27;;;4.10;;
815;SDS011;25928;51.062;13.752;2023-05-10T10:15:25;5.33;;;3.70;;
815;SDS011;25928;51.062;13.752;2023-05-10T10:17:51;5.03;;;4.53;;
815;SDS011;25928;51.062;13.752;2023-05-10T10:20:17;6.63;;;3.80;;
815;SDS011;25928;51.062;13.752;2023-05-10T10:22:44;4.07;;;3.43;;
815;SDS011;25928;51.062;13.752;2023-05-10T10:25:11;4.60;;;4.20;;
815;SDS011;25928;51.062;13.752;2023-05-10T10:27:46;5.20;;;3.50;;
815;SDS011;25928;51.062;13.752;2023-05-10T10:36:11;5.60;;;3.70;;
815;SDS011;25928;51.062;13.752;2023-05-10T10:38:54;7.00;;;4.00;;
815;SDS011;25928;51.062;13.752;2023-05-10T10:47:21;3.83;;;3.30;;
815;SDS011;25928;51.062;13.752;2023-05-10T10:50:06;4.50;;;3.90;;
815;SDS011;25928;51.062;13.752;2023-05-10T10:52:37;4.67;;;3.80;;
815;SDS011;25928;51.062;13.752;2023-05-10T10:57:54;7.50;;;4.33;;
815;SDS011;25928;51.062;13.752;2023-05-10T11:00:29;5.77;;;4.30;;
815;SDS011;25928;51.062;13.752;2023-05-10T11:02:56;6.30;;;4.00;;
815;SDS011;25928;51.062;13.752;2023-05-10T11:08:12;3.67;;;3.37;;
815;SDS011;25928;51.062;13.752;2023-05-10T11:10:52;4.40;;;3.80;;
815;SDS011;25928;51.062;13.752;2023-05-10T11:13:30;4.10;;;3.70;;
815;SDS011;25928;51.062;13.752;2023-05-10T11:15:57;4.20;;;3.80;;
815;SDS011;25928;51.062;13.752;2023-05-10T11:18:27;4.93;;;4.37;;
815;SDS011;25928;51.062;13.752;2023-05-10T11:20:58;6.90;;;3.77;;
815;SDS011;25928;51.062;13.752;2023-05-10T11:23:29;4.80;;;4.00;;
815;SDS011;25928;51.062;13.752;2023-05-10T11:25:56;5.07;;;4.17;;
815;SDS011;25928;51.062;13.752;2023-05-10T11:28:21;4.80;;;3.90;;
815;SDS011;25928;51.062;13.752;2023-05-10T11:30:47;5.60;;;3.90;;
815;SDS011;25928;51.062;13.752;2023-05-10T11:33:17;7.10;;;3.70;;
815;SDS011;25928;51.062;13.752;2023-05-10T11:35:44;3.60;;;3.30;;
815;SDS011;25928;51.062;13.752;2023-05-10T11:38:11;4.73;;;4.00;;
815;SDS011;25928;51.062;13.752;2023-05-10T11:40:37;4.00;;;3.60;;
815;SDS011;25928;51.062;13.752;2023-05-10T11:43:04;4.20;;;3.90;;
815;SDS011;25928;51.062;13.752;2023-05-10T11:45:34;5.30;;;3.70;;
815;SDS011;25928;51.062;13.752;2023-05-10T11:48:00;3.27;;;3.00;;
815;SDS011;25928;51.062;13.752;2023-05-10T11:50:26;5.17;;;3.60;;
815;SDS011;25928;51.062;13.752;2023-05-10T11:52:52;5.23;;;4.10;;
815;SDS011;25928;51.062;13.752;2023-05-10T11:55:19;6.40;;;4.20;;
815;SDS011;25928;51.062;13.752;2023-05-10T11:57:45;4.20;;;3.80;;
815;SDS011;25928;51.062;13.752;2023-05-10T12:00:11;8.27;;;4.40;;
815;SDS011;25928;51.062;13.752;2023-05-10T12:02:38;4.63;;;4.27;;
815;SDS011;25928;51.062;13.752;2023-05-10T12:05:04;4.00;;;3.60;;
815;SDS011;25928;51.062;13.752;2023-05-10T12:07:31;3.90;;;3.60;;
815;SDS011;25928;51.062;13.752;2023-05-10T12:10:12;5.47;;;3.60;;
815;SDS011;25928;51.062;13.752;2023-05-10T12:12:45;7.03;;;4.40;;
815;SDS011;25928;51.062;13.752;2023-05-10T12:15:18;3.97;;;3.57;;
815;SDS011;25928;51.062;13.752;2023-05-10T12:17:48;3.63;;;3.33;;
815;SDS011;25928;51.062;13.752;2023-05-10T12:22:48;4.20;;;3.60;;
815;SDS011;25928;51.062;13.752;2023-05-10T12:25:16;3.97;;;3.57;;
815;SDS011;25928;51.062;13.752;2023-05-10T12:27:50;4.00;;;3.40;;
815;SDS011;25928;51.062;13.752;2023-05-10T12:30:23;4.30;;;3.90;;
815;SDS011;25928;51.062;13.752;2023-05-10T12:32:50;5.67;;;4.40;;
815;SDS011;25928;51.062;13.752;2023-05-10T12:35:17;7.30;;;4.13;;
815;SDS011;25928;51.062;13.752;2023-05-10T12:37:46;4.33;;;3.93;;
815;SDS011;25928;51.062;13.752;2023-05-10T12:40:13;5.10;;;4.00;;
815;SDS011;25928;51.062;13.752;2023-05-10T12:42:39;5.57;;;3.90;;
815;SDS011;25928;51.062;13.752;2023-05-10T12:45:05;4.03;;;3.63;;
815;SDS011;25928;51.062;13.752;2023-05-10T12:47:31;4.00;;;3.50;;
815;SDS011;25928;51.062;13.752;2023-05-10T12:49:58;3.63;;;3.20;;
815;SDS011;25928;51.062;13.752;2023-05-10T12:52:24;4.30;;;3.90;;
815;SDS011;25928;51.062;13.752;2023-05-10T12:54:51;7.23;;;3.40;;
815;SDS011;25928;51.062;13.752;2023-05-10T12:57:17;4.63;;;3.70;;
815;SDS011;25928;51.062;13.752;2023-05-10T12:59:43;4.50;;;4.20;;
815;SDS011;25928;51.062;13.752;2023-05-10T13:02:08;4.13;;;3.67;;
815;SDS011;25928;51.062;13.752;2023-05-10T13:04:35;4.43;;;4.03;;
815;SDS011;25928;51.062;13.752;2023-05-10T13:07:04;4.47;;;3.67;;
815;SDS011;25928;51.062;13.752;2023-05-10T13:09:32;4.50;;;4.03;;
815;SDS011;25928;51.062;13.752;2023-05-10T13:11:58;4.20;;;3.80;;
815;SDS011;25928;51.062;13.752;2023-05-10T13:14:24;7.70;;;3.83;;
815;SDS011;25928;51.062;13.752;2023-05-10T13:16:50;4.43;;;3.90;;
815;SDS011;25928;51.062;13.752;2023-05-10T13:19:16;4.30;;;3.80;;
815;SDS011;25928;51.062;13.752;2023-05-10T13:21:42;5.93;;;4.10;;
815;SDS011;25928;51.062;13.752;2023-05-10T13:24:09;5.37;;;3.50;;
815;SDS011;25928;51.062;13.752;2023-05-10T13:26:35;4.47;;;4.07;;
815;SDS011;25928;51.062;13.752;2023-05-10T13:29:02;5.27;;;3.90;;
815;SDS011;25928;51.062;13.752;2023-05-10T13:31:28;4.07;;;3.67;;
815;SDS011;25928;51.062;13.752;2023-05-10T13:33:54;4.90;;;4.10;;
815;SDS011;25928;51.062;13.752;2023-05-10T13:36:20;8.87;;;4.30;;
815;SDS011;25928;51.062;13.752;2023-05-10T13:38:46;4.20;;;3.60;;
815;SDS011;25928;51.062;13.752;2023-05-10T13:41:11;4.33;;;3.83;;
815;SDS011;25928;51.062;13.752;2023-05-10T13:43:37;6.40;;;4.37;;
815;SDS011;25928;51.062;13.752;2023-05-10T13:46:02;4.20;;;3.60;;
815;SDS011;25928;51.062;13.752;2023-05-10T13:48:28;4.30;;;3.90;;
815;SDS011;25928;51.062;13.752;2023-05-10T13:50:54;3.70;;;3.30;;
815;SDS011;25928;51.062;13.752;2023-05-10T13:53:19;4.70;;;3.60;;
815;SDS011;25928;51.062;13.752;2023-05-10T13:55:45;4.80;;;3.70;;
815;SDS011;25928;51.062;13.752;2023-05-10T13:58:12;4.03;;;3.63;;
815;SDS011;25928;51.062;13.752;2023-05-10T14:00:37;4.73;;;4.33;;
815;SDS011;25928;51.062;13.752;2023-05-10T14:03:03;4.17;;;3.83;;
815;SDS011;25928;51.062;13.752;2023-05-10T14:05:30;4.70;;;3.27;;
815;SDS011;25928;51.062;13.752;2023-05-10T14:07:55;4.00;;;3.67;;
815;SDS011;25928;51.062;13.752;2023-05-10T14:10:22;3.63;;;3.30;;
815;SDS011;25928;51.062;13.752;2023-05-10T14:12:47;4.63;;;3.67;;
815;SDS011;25928;51.062;13.752;2023-05-10T14:15:15;3.60;;;3.30;;
815;SDS011;25928;51.062;13.752;2023-05-10T14:17:41;3.60;;;3.30;;
815;SDS011;25928;51.062;13.752;2023-05-10T14:20:06;4.77;;;3.87;;
815;SDS011;25928;51.062;13.752;2023-05-10T14:22:33;3.33;;;2.97;;
815;SDS011;25928;51.062;13.752;2023-05-10T14:24:59;5.50;;;3.50;;
815;SDS011;25928;51.062;13.752;2023-05-10T14:27:25;4.03;;;3.63;;
815;SDS011;25928;51.062;13.752;2023-05-10T14:29:51;3.73;;;3.43;;
815;SDS011;25928;51.062;13.752;2023-05-10T14:32:18;4.17;;;3.40;;
815;SDS011;25928;51.062;13.752;2023-05-10T14:34:43;6.57;;;3.87;;
815;SDS011;25928;51.062;13.752;2023-05-10T14:37:10;5.10;;;3.27;;
815;SDS011;25928;51.062;13.752;2023-05-10T14:39:36;4.03;;;3.60;;
815;SDS011;25928;51.062;13.752;2023-05-10T14:42:02;4.87;;;2.93;;
815;SDS011;25928;51.062;13.752;2023-05-10T14:44:28;4.30;;;3.73;;
815;SDS011;25928;51.062;13.752;2023-05-10T14:46:53;4.33;;;3.30;;
815;SDS011;25928;51.062;13.752;2023-05-10T14:49:20;3.73;;;3.43;;
815;SDS011;25928;51.062;13.752;2023-05-10T14:51:47;4.10;;;3.70;;
815;SDS011;25928;51.062;13.752;2023-05-10T14:54:13;5.73;;;3.53;;
815;SDS011;25928;51.062;13.752;2023-05-10T14:56:39;6.50;;;4.20;;
815;SDS011;25928;51.062;13.752;2023-05-10T14:59:06;4.10;;;3.70;;
815;SDS011;25928;51.062;13.752;2023-05-10T15:01:32;5.83;;;3.90;;
815;SDS011;25928;51.062;13.752;2023-05-10T15:03:59;4.20;;;3.80;;
815;SDS011;25928;51.062;13.752;2023-05-10T15:06:30;4.33;;;3.70;;
815;SDS011;25928;51.062;13.752;2023-05-10T15:08:56;4.03;;;3.40;;
815;SDS011;25928;51.062;13.752;2023-05-10T15:11:22;4.33;;;3.93;;
815;SDS011;25928;51.062;13.752;2023-05-10T15:13:48;4.60;;;3.50;;
815;SDS011;25928;51.062;13.752;2023-05-10T15:16:13;4.20;;;3.50;;
815;SDS011;25928;51.062;13.752;2023-05-10T15:18:39;5.43;;;3.63;;
815;SDS011;25928;51.062;13.752;2023-05-10T15:21:04;3.80;;;3.23;;
815;SDS011;25928;51.062;13.752;2023-05-10T15:23:30;3.90;;;3.50;;
815;SDS011;25928;51.062;13.752;2023-05-10T15:25:56;6.67;;;3.43;;
815;SDS011;25928;51.062;13.752;2023-05-10T15:28:22;5.23;;;3.70;;
815;SDS011;25928;51.062;13.752;2023-05-10T15:30:48;4.53;;;4.13;;
815;SDS011;25928;51.062;13.752;2023-05-10T15:33:14;3.70;;;3.40;;
815;SDS011;25928;51.062;13.752;2023-05-10T15:35:39;6.70;;;3.33;;
815;SDS011;25928;51.062;13.752;2023-05-10T15:38:06;3.83;;;3.47;;
815;SDS011;25928;51.062;13.752;2023-05-10T15:40:32;3.80;;;3.50;;
815;SDS011;25928;51.062;13.752;2023-05-10T15:42:57;3.80;;;3.40;;
815;SDS011;25928;51.062;13.752;2023-05-10T15:45:23;5.80;;;3.10;;
815;SDS011;25928;51.062;13.752;2023-05-10T15:47:48;4.03;;;3.63;;
815;SDS011;25928;51.062;13.752;2023-05-10T15:50:14;4.43;;;3.70;;
815;SDS011;25928;51.062;13.752;2023-05-10T15:52:41;3.80;;;3.40;;